Time;durP1;ratioP1;P1;durP2;ratioP2;P2;SDS_P1;SDS_P2;PMS_P1;PMS_P2;Temp;Humidity;BMP_temperature;BMP_pressure;BME280_temperature;BME280_humidity;BME280_pressure;Samples;Min_cycle;Max_cycle;Signal;HPM_P1;HPM_P2
2021/06/01 00:00:10;;;;;;;;;;;;;;;16.65;52.37;97034.88;5046351;28;19929;-66
2021/06/01 00:02:36;;;;;;;;;;;;;;;16.65;52.25;97032.25;5048035;28;20420;-66
2021/06/01 00:05:04;;;;;;;;;;;;;;;16.65;52.48;97034.88;5043385;28;19925;-66
2021/06/01 00:07:30;;;;;;;;;;;;;;;16.67;52.58;97032.88;5044753;28;19925;-66
2021/06/01 00:09:57;;;;;;;;;;;;;;;16.66;52.37;97033.91;5046521;28;19933;-66
2021/06/01 00:12:24;;;;;;;;;;;;;;;16.64;52.25;97023.56;5045348;28;19925;-66
2021/06/01 00:14:51;;;;;;;;;;;;;;;16.66;52.39;97036.53;5043264;28;19979;-66
2021/06/01 00:17:17;;;;;;;;;;;;;;;16.66;52.77;97031.28;5043445;28;19943;-66
2021/06/01 00:19:44;;;;;;;;;;;;;;;16.64;52.07;97033.28;5048125;28;19932;-66
2021/06/01 00:22:10;;;;;;;;;;;;;;;16.64;52.55;97028.84;5042130;28;19947;-66
2021/06/01 00:24:37;;;;;;;;;;;;;;;16.64;52.69;97028.84;5045425;28;19932;-66
2021/06/01 00:27:03;;;;;;;;;;;;;;;16.64;52.61;97033.28;5043613;28;19925;-66
2021/06/01 00:29:30;;;;;;;;;;;;;;;16.64;52.52;97034.09;5050882;28;19932;-66
2021/06/01 00:31:56;;;;;;;;;;;;;;;16.64;52.73;97020.16;5047698;28;20366;-66
2021/06/01 00:34:23;;;;;;;;;;;;;;;16.64;52.41;97025.41;5046621;28;20333;-66
2021/06/01 00:36:49;;;;;;;;;;;;;;;16.64;52.31;97030.66;5048973;28;19929;-66
2021/06/01 00:39:16;;;;;;;;;;;;;;;16.64;52.48;97028.03;5048108;28;19929;-66
2021/06/01 00:41:42;;;;;;;;;;;;;;;16.64;52.78;97022.78;5046820;28;20049;-66
2021/06/01 00:44:09;;;;;;;;;;;;;;;16.63;52.23;97023.75;5048344;28;20509;-66
2021/06/01 00:46:35;;;;;;;;;;;;;;;16.64;52.09;97020.16;5048994;28;20396;-66
2021/06/01 00:49:02;;;;;;;;;;;;;;;16.62;52.46;97020.34;5048537;28;19929;-66
2021/06/01 00:51:30;;;;;;;;;;;;;;;16.63;52.30;97021.13;5050200;28;19932;-66
2021/06/01 00:53:57;;;;;;;;;;;;;;;16.64;52.56;97018.31;5050230;28;19990;-66
2021/06/01 00:56:23;;;;;;;;;;;;;;;16.63;52.51;97016.69;5020816;28;19937;-66
2021/06/01 00:58:50;;;;;;;;;;;;;;;16.62;52.29;97017.69;5051256;28;20407;-66
2021/06/01 01:01:19;;;;;;;;;;;;;;;16.62;52.12;97022.97;5049794;28;20047;-66
2021/06/01 01:03:47;;;;;;;;;;;;;;;16.64;52.62;97020.16;5048339;28;20032;-66
2021/06/01 01:06:18;;;;;;;;;;;;;;;16.62;52.20;97015.06;5049245;28;19925;-66
2021/06/01 01:11:35;;;;;;;;;;;;;;;16.62;52.18;97009.03;5047554;28;20344;-66
2021/06/01 01:14:06;;;;;;;;;;;;;;;16.61;51.98;97005.56;5047639;28;19925;-66
2021/06/01 01:16:34;;;;;;;;;;;;;;;16.61;51.79;97000.31;5048242;28;19928;-66
2021/06/01 01:19:14;;;;;;;;;;;;;;;16.62;52.05;96999.31;5048975;28;19983;-66
2021/06/01 01:21:41;;;;;;;;;;;;;;;16.62;52.78;97003.75;5046592;28;19931;-66
2021/06/01 01:24:26;;;;;;;;;;;;;;;16.62;52.48;97003.75;5045648;28;19925;-66
2021/06/01 01:26:55;;;;;;;;;;;;;;;16.61;52.65;97008.19;5048044;28;19928;-66
2021/06/01 01:29:24;;;;;;;;;;;;;;;16.61;52.20;97016.06;5049545;28;20671;-66
2021/06/01 01:31:52;;;;;;;;;;;;;;;16.61;52.02;97012.63;5031583;28;19925;-66
2021/06/01 01:34:21;;;;;;;;;;;;;;;16.60;52.39;97008.41;5048871;28;19928;-66
2021/06/01 01:36:48;;;;;;;;;;;;;;;16.59;52.19;96998.88;5046344;28;19963;-66
2021/06/01 01:39:15;;;;;;;;;;;;;;;16.61;52.24;97004.75;5049100;28;19929;-66
2021/06/01 01:41:42;;;;;;;;;;;;;;;16.60;52.51;97000.53;5049641;28;19924;-66
2021/06/01 01:44:15;;;;;;;;;;;;;;;16.60;52.00;97000.53;5046666;28;19929;-66
2021/06/01 01:49:15;;;;;;;;;;;;;;;16.59;52.06;96999.69;5050094;28;20666;-66
2021/06/01 01:51:43;;;;;;;;;;;;;;;16.60;52.10;97000.53;5050751;28;19932;-66
2021/06/01 01:54:10;;;;;;;;;;;;;;;16.61;52.17;97002.13;5049067;28;19925;-66
2021/06/01 01:56:39;;;;;;;;;;;;;;;16.59;52.34;97004.13;5046894;28;19933;-66
2021/06/01 01:59:06;;;;;;;;;;;;;;;16.59;52.10;96991.00;5050828;28;19924;-66
2021/06/01 02:01:34;;;;;;;;;;;;;;;16.59;52.03;97002.31;5048953;28;19925;-66
2021/06/01 02:04:01;;;;;;;;;;;;;;;16.60;52.25;96995.25;5045227;28;19971;-66
2021/06/01 02:06:28;;;;;;;;;;;;;;;16.60;52.14;96995.25;5031285;28;19932;-66
2021/06/01 02:08:55;;;;;;;;;;;;;;;16.60;52.18;96997.88;5051523;28;19931;-66
2021/06/01 02:11:21;;;;;;;;;;;;;;;16.59;52.08;96993.63;5026488;28;19928;-66
2021/06/01 02:13:51;;;;;;;;;;;;;;;16.59;52.45;96993.63;5028646;28;19956;-66
2021/06/01 02:16:18;;;;;;;;;;;;;;;16.60;52.38;96995.25;5048337;28;20404;-66
2021/06/01 02:18:45;;;;;;;;;;;;;;;16.59;52.05;97001.50;5049110;28;19929;-66
2021/06/01 02:21:21;;;;;;;;;;;;;;;16.59;52.08;96999.69;5047581;28;19932;-66
2021/06/01 02:23:57;;;;;;;;;;;;;;;16.59;51.84;96996.25;5047658;28;19929;-66
2021/06/01 02:26:29;;;;;;;;;;;;;;;16.59;51.84;96996.25;5046631;28;19925;-66
2021/06/01 02:28:58;;;;;;;;;;;;;;;16.59;51.97;96991.00;5047720;28;19936;-66
2021/06/01 02:31:30;;;;;;;;;;;;;;;16.57;52.13;96993.03;5043191;28;19928;-66
2021/06/01 02:33:57;;;;;;;;;;;;;;;16.59;52.20;96991.81;5046160;28;20305;-66
2021/06/01 02:36:24;;;;;;;;;;;;;;;16.58;52.30;96999.91;5048686;28;19948;-66
2021/06/01 02:38:51;;;;;;;;;;;;;;;16.58;52.13;96990.19;5046470;28;19937;-66
2021/06/01 02:41:18;;;;;;;;;;;;;;;16.59;51.88;96993.63;5048152;28;20614;-66
2021/06/01 02:43:45;;;;;;;;;;;;;;;16.58;52.43;96998.09;5046908;28;19929;-66
2021/06/01 02:46:14;;;;;;;;;;;;;;;16.57;52.19;96993.81;5047302;28;19994;-66
2021/06/01 02:48:41;;;;;;;;;;;;;;;16.58;52.40;96994.66;5047778;28;20372;-66
2021/06/01 02:51:14;;;;;;;;;;;;;;;16.57;51.97;96993.81;5048924;28;19931;-66
2021/06/01 02:53:51;;;;;;;;;;;;;;;16.57;52.40;97001.69;5044433;28;19928;-66
2021/06/01 02:56:18;;;;;;;;;;;;;;;16.58;52.37;96995.44;5026009;28;20306;-66
2021/06/01 02:58:45;;;;;;;;;;;;;;;16.58;52.16;96997.28;5047141;28;19928;-66
2021/06/01 03:01:13;;;;;;;;;;;;;;;16.58;52.23;96997.28;5047680;28;19931;-66
2021/06/01 03:03:43;;;;;;;;;;;;;;;16.58;52.52;96999.91;5044543;28;20388;-66
2021/06/01 03:06:09;;;;;;;;;;;;;;;16.57;52.36;96991.19;5045224;28;19952;-66
2021/06/01 03:08:38;;;;;;;;;;;;;;;16.58;52.47;96992.03;5048624;28;19925;-66
2021/06/01 03:11:05;;;;;;;;;;;;;;;16.58;52.19;96998.09;5049915;28;19932;-66
2021/06/01 03:13:31;;;;;;;;;;;;;;;16.57;52.12;96990.38;5045759;28;20372;-66
2021/06/01 03:15:58;;;;;;;;;;;;;;;16.57;52.35;96985.94;5043654;28;19937;-66
2021/06/01 03:18:24;;;;;;;;;;;;;;;16.57;52.20;96985.94;5052240;28;20643;-66
2021/06/01 03:20:51;;;;;;;;;;;;;;;16.58;52.48;96992.03;5047245;28;20604;-66
2021/06/01 03:23:18;;;;;;;;;;;;;;;16.57;52.30;96991.19;5046854;28;19925;-66
2021/06/01 03:25:45;;;;;;;;;;;;;;;16.58;52.02;96987.56;5044875;28;19979;-66
2021/06/01 03:28:13;;;;;;;;;;;;;;;16.58;51.90;96992.03;5047467;28;19944;-66
2021/06/01 03:30:39;;;;;;;;;;;;;;;16.58;52.47;96992.03;5047556;28;19925;-66
2021/06/01 03:33:06;;;;;;;;;;;;;;;16.58;52.27;96984.13;5042163;28;20032;-66
2021/06/01 03:35:33;;;;;;;;;;;;;;;16.58;52.70;96982.31;5046404;28;19928;-66
2021/06/01 03:37:59;;;;;;;;;;;;;;;16.58;52.51;96982.31;5047061;28;19925;-66
2021/06/01 03:40:26;;;;;;;;;;;;;;;16.58;52.25;96984.13;5046664;28;20012;-66
2021/06/01 03:42:53;;;;;;;;;;;;;;;16.59;52.69;96991.81;5045877;28;19932;-66
2021/06/01 03:45:21;;;;;;;;;;;;;;;16.59;52.07;96988.38;5044497;28;19947;-66
2021/06/01 03:47:47;;;;;;;;;;;;;;;16.59;52.27;96991.00;5047173;28;19925;-66
2021/06/01 03:50:14;;;;;;;;;;;;;;;16.60;52.12;96990.81;5047976;28;19925;-66
2021/06/01 03:52:40;;;;;;;;;;;;;;;16.60;52.30;96990.00;5045560;28;19929;-66
2021/06/01 03:55:07;;;;;;;;;;;;;;;16.59;52.57;96989.19;5046065;28;19932;-66
2021/06/01 03:57:33;;;;;;;;;;;;;;;16.60;52.20;96984.75;5050315;28;19932;-66
2021/06/01 04:00:00;;;;;;;;;;;;;;;16.59;52.56;96988.38;5045970;28;19936;-66
2021/06/01 04:02:27;;;;;;;;;;;;;;;16.59;52.41;96985.75;5045065;28;20435;-66
2021/06/01 04:04:53;;;;;;;;;;;;;;;16.60;52.56;96990.81;5047552;28;19932;-66
2021/06/01 04:07:19;;;;;;;;;;;;;;;16.60;52.38;96990.00;5051442;28;20023;-66
2021/06/01 04:09:46;;;;;;;;;;;;;;;16.58;52.52;96990.19;5047938;28;20407;-66
2021/06/01 04:12:12;;;;;;;;;;;;;;;16.59;52.14;96998.88;5048822;28;19937;-66
2021/06/01 04:14:39;;;;;;;;;;;;;;;16.60;52.19;96990.81;5049420;28;20397;-66
2021/06/01 04:17:05;;;;;;;;;;;;;;;16.60;52.22;96995.25;5049256;28;19931;-66
2021/06/01 04:19:33;;;;;;;;;;;;;;;16.61;52.45;96996.88;5048897;28;19924;-66
2021/06/01 04:22:00;;;;;;;;;;;;;;;16.61;52.26;96988.97;5044768;28;19932;-66
2021/06/01 04:24:27;;;;;;;;;;;;;;;16.60;52.26;96992.63;5051588;28;19936;-67
2021/06/01 04:26:57;;;;;;;;;;;;;;;16.62;52.51;96993.25;5049507;28;19932;-67
2021/06/01 04:29:24;;;;;;;;;;;;;;;16.62;51.76;96995.88;5048591;28;20373;-67
2021/06/01 04:31:51;;;;;;;;;;;;;;;16.56;53.03;97009.81;5049366;28;20483;-68
2021/06/01 04:34:18;;;;;;;;;;;;;;;16.39;53.24;97004.91;5050213;28;19931;-68
2021/06/01 04:36:44;;;;;;;;;;;;;;;16.37;52.88;97006.91;5049192;28;19928;-68
2021/06/01 04:39:11;;;;;;;;;;;;;;;16.30;53.14;97006.09;5032833;28;19994;-68
2021/06/01 04:41:38;;;;;;;;;;;;;;;16.29;53.18;97007.06;5050596;28;19925;-68
2021/06/01 04:44:05;;;;;;;;;;;;;;;16.28;53.30;97003.66;5049938;28;19951;-68
2021/06/01 04:46:31;;;;;;;;;;;;;;;16.28;53.16;96997.59;5046280;28;19925;-67
2021/06/01 04:48:58;;;;;;;;;;;;;;;16.26;53.38;97000.41;5050664;28;19928;-68
2021/06/01 04:51:24;;;;;;;;;;;;;;;16.33;53.61;96999.63;5049724;28;19932;-67
2021/06/01 04:53:55;;;;;;;;;;;;;;;16.44;53.37;96991.97;5049722;28;20385;-68
2021/06/01 04:56:22;;;;;;;;;;;;;;;16.52;52.67;96995.44;5047169;28;19925;-67
2021/06/01 04:58:52;;;;;;;;;;;;;;;16.55;52.23;97000.28;5049275;28;19981;-68
2021/06/01 05:01:18;;;;;;;;;;;;;;;16.57;52.53;96993.03;5050369;28;19925;-68
2021/06/01 05:03:45;;;;;;;;;;;;;;;16.57;52.63;96991.19;5047876;28;19929;-68
2021/06/01 05:06:11;;;;;;;;;;;;;;;16.59;52.77;96998.88;5047448;28;19925;-66
2021/06/01 05:08:38;;;;;;;;;;;;;;;16.57;52.66;96991.19;5049645;28;19925;-68
2021/06/01 05:11:04;;;;;;;;;;;;;;;16.57;52.85;96996.44;5049020;28;19929;-68
2021/06/01 05:13:31;;;;;;;;;;;;;;;16.58;52.93;96992.81;5032809;28;19940;-67
2021/06/01 05:15:57;;;;;;;;;;;;;;;16.56;53.00;96994.84;5043854;28;19925;-67
2021/06/01 05:18:24;;;;;;;;;;;;;;;16.59;52.96;97002.31;5049217;28;19925;-68
2021/06/01 05:21:03;;;;;;;;;;;;;;;16.60;52.92;96995.25;5049007;28;19999;-68
2021/06/01 05:23:30;;;;;;;;;;;;;;;16.49;53.31;96994.81;5041294;28;19928;-68
2021/06/01 05:25:56;;;;;;;;;;;;;;;16.36;53.09;96996.59;5047413;28;19925;-68
2021/06/01 05:28:23;;;;;;;;;;;;;;;16.31;53.12;96997.19;5045682;28;19928;-68
2021/06/01 05:31:14;;;;;;;;;;;;;;;16.30;53.32;96990.31;5048690;28;19929;-67
2021/06/01 05:33:44;;;;;;;;;;;;;;;16.28;53.48;97003.66;5047706;28;19975;-66
2021/06/01 05:36:10;;;;;;;;;;;;;;;16.28;53.40;97002.84;5045370;28;19935;-67
2021/06/01 05:38:37;;;;;;;;;;;;;;;16.26;53.55;96997.78;5045717;28;19971;-66
2021/06/01 05:41:03;;;;;;;;;;;;;;;16.27;53.58;97002.00;5047017;28;19925;-68
2021/06/01 05:43:30;;;;;;;;;;;;;;;16.28;53.53;97000.22;5048637;28;19925;-66
2021/06/01 05:45:57;;;;;;;;;;;;;;;16.27;53.35;97003.84;5047294;28;19931;-66
2021/06/01 05:48:24;;;;;;;;;;;;;;;16.23;53.69;97003.44;5045974;28;19932;-67
2021/06/01 05:50:52;;;;;;;;;;;;;;;16.21;53.61;96997.56;5048045;28;20353;-67
2021/06/01 05:53:20;;;;;;;;;;;;;;;16.22;53.75;96987.88;5048310;28;20376;-67
2021/06/01 05:55:46;;;;;;;;;;;;;;;16.23;53.79;96992.94;5047565;28;19928;-69
2021/06/01 05:58:13;;;;;;;;;;;;;;;16.21;53.94;96991.47;5048046;28;19933;-69
2021/06/01 06:00:39;;;;;;;;;;;;;;;16.25;53.72;96992.72;5047236;28;19987;-68
2021/06/01 06:03:06;;;;;;;;;;;;;;;16.21;53.73;96996.75;5052281;28;20536;-66
2021/06/01 06:05:32;;;;;;;;;;;;;;;16.20;53.81;96995.94;5050950;28;19943;-65
2021/06/01 06:08:06;;;;;;;;;;;;;;;16.21;53.75;96997.56;5047620;28;19928;-66
2021/06/01 06:10:32;;;;;;;;;;;;;;;16.23;53.91;96992.94;5050133;28;19925;-66
2021/06/01 06:12:59;;;;;;;;;;;;;;;16.23;53.91;96997.34;5047789;28;19929;-66
2021/06/01 06:15:27;;;;;;;;;;;;;;;16.20;53.69;96997.75;5049228;28;19925;-66
2021/06/01 06:18:00;;;;;;;;;;;;;;;16.21;53.87;96996.75;5029139;28;20357;-66
2021/06/01 06:20:27;;;;;;;;;;;;;;;16.19;53.90;96994.31;5051403;28;20266;-66
2021/06/01 06:22:53;;;;;;;;;;;;;;;16.21;53.87;96997.56;5050984;28;19933;-67
2021/06/01 06:25:20;;;;;;;;;;;;;;;16.24;53.74;96993.72;5048307;28;20392;-66
2021/06/01 06:27:46;;;;;;;;;;;;;;;16.31;53.70;96993.75;5050793;28;19937;-66
2021/06/01 06:30:13;;;;;;;;;;;;;;;16.29;53.70;96989.50;5049911;28;19925;-66
2021/06/01 06:32:40;;;;;;;;;;;;;;;16.31;53.82;96984.06;5042682;28;19932;-66
2021/06/01 06:35:07;;;;;;;;;;;;;;;16.46;53.15;96989.16;5052235;28;20331;-66
2021/06/01 06:37:34;;;;;;;;;;;;;;;16.52;53.15;96992.81;5047155;28;19948;-66
2021/06/01 06:40:01;;;;;;;;;;;;;;;16.56;53.09;96989.59;5048589;28;19966;-66
2021/06/01 06:42:27;;;;;;;;;;;;;;;16.57;53.15;96991.19;5047551;28;19933;-66
2021/06/01 06:44:54;;;;;;;;;;;;;;;16.61;52.58;96996.88;5049094;28;19939;-66
2021/06/01 06:47:44;;;;;;;;;;;;;;;16.60;52.62;96995.25;5029051;28;19924;-66
2021/06/01 06:50:12;;;;;;;;;;;;;;;16.61;52.40;96991.63;5047476;28;20304;-66
2021/06/01 06:52:39;;;;;;;;;;;;;;;16.63;52.53;96997.47;5046826;28;19929;-66
2021/06/01 06:55:08;;;;;;;;;;;;;;;16.63;52.56;96992.22;5047087;28;19931;-66
2021/06/01 06:57:35;;;;;;;;;;;;;;;16.64;52.58;96993.84;5045925;28;19944;-66
2021/06/01 07:00:13;;;;;;;;;;;;;;;16.65;52.56;96990.22;5027724;28;20599;-66
2021/06/01 07:02:41;;;;;;;;;;;;;;;16.65;52.67;96991.00;5046521;28;19925;-66
2021/06/01 07:05:09;;;;;;;;;;;;;;;16.68;52.55;96992.47;5043191;28;19931;-66
2021/06/01 07:07:36;;;;;;;;;;;;;;;16.67;52.59;96990.81;5043624;28;19931;-66
2021/06/01 07:10:03;;;;;;;;;;;;;;;16.68;52.41;96993.25;5045983;28;19925;-66
2021/06/01 07:12:30;;;;;;;;;;;;;;;16.67;52.56;96989.00;5045408;28;19939;-66
2021/06/01 07:15:10;;;;;;;;;;;;;;;16.67;52.56;96999.50;5041463;28;19940;-66
2021/06/01 07:17:38;;;;;;;;;;;;;;;16.66;52.51;96989.22;5046399;28;19932;-66
2021/06/01 07:20:06;;;;;;;;;;;;;;;16.65;52.46;96977.88;5045702;28;19948;-66
2021/06/01 07:22:33;;;;;;;;;;;;;;;16.67;52.37;96985.56;5046710;28;20301;-66
2021/06/01 07:24:59;;;;;;;;;;;;;;;16.67;52.40;96991.63;5047526;28;19932;-66
2021/06/01 07:27:26;;;;;;;;;;;;;;;16.68;52.45;96981.94;5048824;28;20656;-68
2021/06/01 07:29:52;;;;;;;;;;;;;;;16.66;52.92;96981.31;5047289;28;19928;-66
2021/06/01 07:32:20;;;;;;;;;;;;;;;16.66;52.87;96973.44;5047069;28;19932;-66
2021/06/01 07:34:47;;;;;;;;;;;;;;;16.62;53.12;96977.47;5047212;28;19956;-66
2021/06/01 07:37:14;;;;;;;;;;;;;;;16.60;53.21;96977.66;5050606;28;20277;-68
2021/06/01 07:39:40;;;;;;;;;;;;;;;16.59;53.21;96980.50;5049645;28;19925;-68
2021/06/01 07:42:07;;;;;;;;;;;;;;;16.58;53.48;96971.00;5052249;28;20361;-69
2021/06/01 07:44:34;;;;;;;;;;;;;;;16.56;53.39;96973.00;5053608;28;19925;-69
2021/06/01 07:47:00;;;;;;;;;;;;;;;16.56;53.50;96979.06;5050668;28;20003;-69
2021/06/01 07:49:27;;;;;;;;;;;;;;;16.58;53.31;96971.00;5046018;28;20393;-70
2021/06/01 07:51:53;;;;;;;;;;;;;;;16.62;53.13;96973.03;5054179;28;19936;-67
2021/06/01 07:54:20;;;;;;;;;;;;;;;16.68;53.14;96976.69;5048134;28;19933;-66
2021/06/01 07:56:47;;;;;;;;;;;;;;;16.70;52.90;96974.66;5051030;28;19940;-67
2021/06/01 07:59:13;;;;;;;;;;;;;;;16.71;52.86;96971.00;5052063;28;20279;-67
2021/06/01 08:01:41;;;;;;;;;;;;;;;16.72;52.87;96971.81;5050315;28;20292;-66
2021/06/01 08:04:09;;;;;;;;;;;;;;;16.72;52.86;96966.56;5050633;28;19925;-67
2021/06/01 08:06:37;;;;;;;;;;;;;;;16.72;52.77;96971.81;5049007;28;19931;-66
2021/06/01 08:09:04;;;;;;;;;;;;;;;16.72;52.63;96966.56;5048032;28;20363;-66
2021/06/01 08:11:31;;;;;;;;;;;;;;;16.73;52.83;96963.75;5048818;28;20423;-67
2021/06/01 08:13:58;;;;;;;;;;;;;;;16.74;52.87;96956.66;5050950;28;19933;-67
2021/06/01 08:16:24;;;;;;;;;;;;;;;16.73;52.85;96965.56;5053179;28;19925;-66
2021/06/01 08:19:09;;;;;;;;;;;;;;;16.73;52.83;96963.75;5053172;28;19952;-66
2021/06/01 08:21:58;;;;;;;;;;;;;;;16.73;52.93;96965.56;5045529;28;19932;-66
2021/06/01 08:24:25;;;;;;;;;;;;;;;16.74;52.79;96973.22;5047559;28;19940;-66
2021/06/01 08:26:51;;;;;;;;;;;;;;;16.66;52.95;96962.94;5050866;28;19964;-67
2021/06/01 08:29:18;;;;;;;;;;;;;;;16.48;53.60;96966.91;5049733;28;20357;-67
2021/06/01 08:31:45;;;;;;;;;;;;;;;16.41;53.83;96965.31;5047587;28;19940;-67
2021/06/01 08:34:12;;;;;;;;;;;;;;;16.45;53.63;96961.28;5054664;28;20191;-67
2021/06/01 08:36:38;;;;;;;;;;;;;;;16.46;53.43;96955.78;5051529;28;20629;-66
2021/06/01 08:39:05;;;;;;;;;;;;;;;16.46;53.37;96961.06;5049338;28;19939;-67
2021/06/01 08:41:32;;;;;;;;;;;;;;;16.46;53.33;96955.78;5049179;28;20442;-66
2021/06/01 08:44:02;;;;;;;;;;;;;;;16.53;53.31;96952.38;5047816;28;19929;-66
2021/06/01 08:46:28;;;;;;;;;;;;;;;16.60;53.01;96954.03;5047978;28;19933;-67
2021/06/01 08:48:55;;;;;;;;;;;;;;;16.64;52.91;96955.25;5047982;28;20438;-67
2021/06/01 08:51:23;;;;;;;;;;;;;;;16.67;52.70;96946.94;5049318;28;19929;-67
2021/06/01 08:53:50;;;;;;;;;;;;;;;16.70;52.77;96948.38;5049773;28;20433;-67
2021/06/01 08:56:17;;;;;;;;;;;;;;;16.72;52.68;96940.28;5048484;28;19925;-67
2021/06/01 08:58:44;;;;;;;;;;;;;;;16.71;52.74;96939.47;5048281;28;19929;-67
2021/06/01 09:01:11;;;;;;;;;;;;;;;16.74;52.77;96938.25;5053348;28;20331;-67
2021/06/01 09:03:50;;;;;;;;;;;;;;;16.74;52.80;96941.69;5050366;28;20015;-67
2021/06/01 09:14:20;;;;;;;;;;;;;;;16.73;52.89;96934.03;5050666;28;19995;-67
2021/06/01 09:22:33;;;;;;;;;;;;;;;16.74;52.95;96928.53;5031838;28;20377;-65
2021/06/01 09:25:00;;;;;;;;;;;;;;;16.74;52.82;96919.84;5048574;28;20020;-67
2021/06/01 09:27:29;;;;;;;;;;;;;;;16.69;52.85;96923.09;5047083;28;19932;-67
2021/06/01 09:29:56;;;;;;;;;;;;;;;16.63;53.26;96922.06;5047967;28;19924;-67
2021/06/01 09:32:23;;;;;;;;;;;;;;;16.62;53.52;96935.44;5046915;28;19933;-66
2021/06/01 09:34:51;;;;;;;;;;;;;;;16.67;52.98;96933.81;5049902;28;19925;-67
2021/06/01 09:37:21;;;;;;;;;;;;;;;16.70;52.98;96922.09;5049199;28;19960;-67
2021/06/01 09:40:06;;;;;;;;;;;;;;;16.73;52.97;96920.88;5047776;28;20455;-67
2021/06/01 09:42:34;;;;;;;;;;;;;;;16.74;52.84;96917.22;5047248;28;19929;-66
2021/06/01 09:45:02;;;;;;;;;;;;;;;16.73;52.88;96919.06;5048883;28;19931;-67
2021/06/01 09:47:44;;;;;;;;;;;;;;;16.75;52.86;96917.03;5045530;28;19931;-67
2021/06/01 09:50:22;;;;;;;;;;;;;;;16.77;52.85;96917.66;5049488;28;19943;-66
2021/06/01 09:52:51;;;;;;;;;;;;;;;16.77;52.98;96914.22;5030891;28;19939;-67
2021/06/01 09:55:29;;;;;;;;;;;;;;;16.77;52.91;96915.00;5048914;28;19924;-66
2021/06/01 09:57:57;;;;;;;;;;;;;;;16.77;52.82;96912.38;5047584;28;19935;-66
2021/06/01 10:00:25;;;;;;;;;;;;;;;16.77;52.98;96907.13;5047590;28;19955;-68
2021/06/01 10:02:57;;;;;;;;;;;;;;;16.78;52.97;96897.41;5050216;28;19963;-69
2021/06/01 10:05:24;;;;;;;;;;;;;;;16.78;52.82;96882.44;5044392;28;20408;-69
2021/06/01 10:07:51;;;;;;;;;;;;;;;16.79;52.93;96894.59;5045327;28;19929;-67
2021/06/01 10:10:20;;;;;;;;;;;;;;;16.79;52.84;96904.31;5049686;28;19939;-67
2021/06/01 10:12:47;;;;;;;;;;;;;;;16.79;53.01;96899.84;5047925;28;20068;-67
2021/06/01 10:15:15;;;;;;;;;;;;;;;16.79;53.07;96897.22;5047222;28;20019;-66
2021/06/01 10:17:58;;;;;;;;;;;;;;;16.80;52.95;96898.84;5044752;28;19932;-68
2021/06/01 10:20:26;;;;;;;;;;;;;;;16.80;53.00;96890.13;5048935;28;20383;-67
2021/06/01 10:22:53;;;;;;;;;;;;;;;16.79;52.96;96891.97;5046757;28;19937;-67
2021/06/01 10:25:20;;;;;;;;;;;;;;;16.81;52.92;96883.91;5022029;28;19925;-68
2021/06/01 10:27:48;;;;;;;;;;;;;;;16.80;52.95;96896.22;5044720;28;19986;-68
2021/06/01 10:30:15;;;;;;;;;;;;;;;16.69;52.95;96878.41;5048727;28;19940;-68
2021/06/01 10:32:43;;;;;;;;;;;;;;;16.79;53.05;96897.22;5049495;28;20431;-68
2021/06/01 10:35:13;;;;;;;;;;;;;;;16.79;53.12;96891.97;5043515;28;19963;-59
2021/06/01 10:52:03;;;;;;;;;;;;;;;16.80;53.07;96862.06;5046503;28;20676;-67
2021/06/01 10:54:49;;;;;;;;;;;;;;;16.80;53.17;96859.41;5048835;28;19932;-67
2021/06/01 10:57:17;;;;;;;;;;;;;;;16.81;53.13;96860.25;5046627;28;19939;-67
2021/06/01 10:59:46;;;;;;;;;;;;;;;16.81;53.04;96861.06;5045467;28;19937;-67
2021/06/01 11:02:13;;;;;;;;;;;;;;;16.82;52.98;96872.38;5028645;28;20455;-67
2021/06/01 11:04:58;;;;;;;;;;;;;;;16.82;53.13;96859.22;5046432;28;19951;-67
2021/06/01 11:07:27;;;;;;;;;;;;;;;16.82;53.05;96870.53;5046861;28;20423;-67
2021/06/01 11:09:54;;;;;;;;;;;;;;;16.82;52.98;96865.28;5043354;28;19929;-67
2021/06/01 11:12:24;;;;;;;;;;;;;;;16.82;53.03;96867.91;5045642;28;20393;-67
2021/06/01 11:14:51;;;;;;;;;;;;;;;16.82;53.10;96852.16;5029425;28;19935;-67
2021/06/01 11:17:33;;;;;;;;;;;;;;;16.82;53.12;96852.16;5044474;28;19947;-67
2021/06/01 11:20:09;;;;;;;;;;;;;;;16.83;53.12;96850.34;5045041;28;20411;-67
2021/06/01 11:33:27;;;;;;;;;;;;;;;16.82;53.08;96840.81;5026061;28;19924;-67
2021/06/01 11:35:57;;;;;;;;;;;;;;;16.82;53.11;96844.25;5045551;28;19933;-67
2021/06/01 11:38:48;;;;;;;;;;;;;;;16.81;53.12;96834.75;5045987;28;19990;-66
2021/06/01 11:43:51;;;;;;;;;;;;;;;16.82;53.12;96831.09;5043967;28;19933;-66
2021/06/01 11:51:25;;;;;;;;;;;;;;;16.83;53.04;96826.69;5045305;28;19931;-67
2021/06/01 11:53:51;;;;;;;;;;;;;;;16.82;53.16;96817.97;5045450;28;20852;-67
2021/06/01 11:56:41;;;;;;;;;;;;;;;16.83;53.13;96822.22;5044717;28;19925;-67
2021/06/01 12:02:04;;;;;;;;;;;;;;;16.83;53.20;96814.34;5027643;28;19935;-67
2021/06/01 12:13:15;;;;;;;;;;;;;;;16.82;53.16;96806.66;5036949;28;19929;-66
2021/06/01 12:18:41;;;;;;;;;;;;;;;16.83;53.23;96801.19;5042394;28;20820;-67
2021/06/01 12:21:08;;;;;;;;;;;;;;;16.84;53.08;96797.53;5047608;28;19939;-67
2021/06/01 12:23:36;;;;;;;;;;;;;;;16.84;53.17;96802.78;5048929;28;19925;-67
2021/06/01 12:26:25;;;;;;;;;;;;;;;16.84;53.27;96794.91;5049688;28;20370;-67
2021/06/01 12:32:01;;;;;;;;;;;;;;;16.86;53.12;96798.16;5045756;28;19925;-67
2021/06/01 12:43:07;;;;;;;;;;;;;;;16.86;53.28;96790.25;5047308;28;19929;-66
2021/06/01 13:08:28;;;;;;;;;;;;;;;16.55;53.98;96754.09;5033503;28;19943;-67
2021/06/01 13:14:07;;;;;;;;;;;;;;;16.57;53.96;96757.31;5051146;28;19925;-66
2021/06/01 13:19:29;;;;;;;;;;;;;;;16.63;53.67;96743.34;5045364;28;20270;-66
2021/06/01 13:22:25;;;;;;;;;;;;;;;16.63;53.54;96742.56;5049894;28;20347;-66
2021/06/01 13:30:41;;;;;;;;;;;;;;;16.57;53.77;96744.16;5050063;28;19925;-67
2021/06/01 13:38:54;;;;;;;;;;;;;;;16.53;54.30;96732.47;5047006;28;19925;-67
2021/06/01 13:46:49;;;;;;;;;;;;;;;16.53;54.15;96745.63;5047980;28;19925;-67
2021/06/01 13:49:31;;;;;;;;;;;;;;;16.52;54.17;96735.31;5047630;28;19931;-67
2021/06/01 14:00:30;;;;;;;;;;;;;;;16.51;54.32;96721.38;5044797;28;19925;-67
2021/06/01 14:15:17;;;;;;;;;;;;;;;16.52;54.64;96716.91;5040744;28;19925;-67
2021/06/01 14:30:40;;;;;;;;;;;;;;;16.52;54.42;96706.41;5049491;28;19924;-67
2021/06/01 14:36:03;;;;;;;;;;;;;;;16.53;54.43;96700.94;5047463;28;19925;-66
2021/06/01 15:22:35;;;;;;;;;;;;;;;16.65;53.99;96677.47;5042423;28;19932;-67
2021/06/01 15:31:18;;;;;;;;;;;;;;;16.57;54.59;96665.34;5045008;28;20369;-66
2021/06/01 15:48:14;;;;;;;;;;;;;;;16.61;54.59;96658.66;5046786;28;19940;-67
2021/06/01 15:50:55;;;;;;;;;;;;;;;16.59;54.58;96658.06;5044522;28;19944;-67
2021/06/01 16:13:50;;;;;;;;;;;;;;;16.64;54.34;96652.19;5023016;28;19929;-67
2021/06/01 17:03:08;;;;;;;;;;;;;;;16.63;54.49;96645.31;5052647;28;19928;-67
2021/06/01 17:03:54;;;;;;;;;;;;;;;16.66;54.36;96637.84;5047830;28;19925;-67
2021/06/01 17:06:27;;;;;;;;;;;;;;;16.70;54.22;96640.88;5044510;28;19924;-67
2021/06/01 17:11:48;;;;;;;;;;;;;;;16.68;54.26;96617.41;5046669;28;19987;-68
2021/06/01 17:14:15;;;;;;;;;;;;;;;16.65;54.32;96627.53;5047584;28;19955;-68
2021/06/01 17:16:54;;;;;;;;;;;;;;;16.56;54.63;96631.41;5026589;28;19932;-68
2021/06/01 17:35:15;;;;;;;;;;;;;;;16.61;54.63;96632.38;5050574;28;19929;-64
2021/06/01 17:37:41;;;;;;;;;;;;;;;16.61;54.76;96634.19;5054273;28;19925;-67
2021/06/01 17:40:10;;;;;;;;;;;;;;;16.62;54.86;96630.56;5055450;28;19931;-67
2021/06/01 17:42:38;;;;;;;;;;;;;;;16.62;54.71;96630.56;5047101;28;20320;-65
2021/06/01 17:45:05;;;;;;;;;;;;;;;16.62;54.63;96635.84;5050627;28;19999;-65
2021/06/01 17:47:47;;;;;;;;;;;;;;;16.60;54.80;96633.41;5046633;28;19971;-65
2021/06/01 17:50:14;;;;;;;;;;;;;;;16.62;54.67;96635.84;5052537;28;19925;-65
2021/06/01 17:52:43;;;;;;;;;;;;;;;16.64;54.58;96631.19;5047023;28;19924;-66
2021/06/01 17:55:15;;;;;;;;;;;;;;;16.65;54.67;96635.41;5032227;28;19931;-67
2021/06/01 17:57:42;;;;;;;;;;;;;;;16.73;54.18;96629.91;5031269;28;19925;-67
2021/06/01 18:00:09;;;;;;;;;;;;;;;16.71;54.02;96628.53;5049837;28;20469;-67
2021/06/01 18:02:38;;;;;;;;;;;;;;;16.71;53.97;96641.66;5044287;28;19925;-67
2021/06/01 18:05:05;;;;;;;;;;;;;;;16.71;54.20;96634.56;5037173;28;19928;-67